METAR Formatted Surface Weather Observation
Issued by NWS

Current Version | Previous Version | Text Only | Print | Product List | Glossary On
Versions: 1 2 3 4 5 6 7 8 9 10 11 12 13 14 15 16 17 18 19 20 21 22 23 24 25 26 27 28 29 30 31 32 33 34 35 36 37 38 39 40 41 42 43 44 45 46 47 48 49 50
000
SAMY31 PGSN 150522 RRX
MTRGSN
METAR PGSN 150254Z 10010KT 10SM -RA SCT018 BKN033 OVC110 27/26 A2973 RMK

     AO2 SLP090 P0001 60001 T02720256 58016





































USA.gov is the U.S. government's official web portal to all federal, state and local government web resources and services.